sensor_id;sensor_type;location;lat;lon;timestamp;pressure;altitude;pressure_sealevel;temperature;humidity
33153;BME280;19509;43.862;26.176;2022-09-13T00:00:40;100426.22;;;14.10;81.98
33153;BME280;19509;43.862;26.176;2022-09-13T00:03:06;100418.78;;;14.05;81.63
33153;BME280;19509;43.862;26.176;2022-09-13T00:05:32;100420.78;;;14.10;82.06
33153;BME280;19509;43.862;26.176;2022-09-13T00:07:59;100417.75;;;14.06;82.49
33153;BME280;19509;43.862;26.176;2022-09-13T00:10:25;100417.16;;;14.04;82.40
33153;BME280;19509;43.862;26.176;2022-09-13T00:12:51;100415.84;;;14.07;81.78
33153;BME280;19509;43.862;26.176;2022-09-13T00:15:16;100411.03;;;13.97;82.00
33153;BME280;19509;43.862;26.176;2022-09-13T00:17:42;100414.31;;;13.99;81.84
33153;BME280;19509;43.862;26.176;2022-09-13T00:20:08;100412.47;;;14.00;81.85
33153;BME280;19509;43.862;26.176;2022-09-13T00:22:34;100411.81;;;14.09;81.60
33153;BME280;19509;43.862;26.176;2022-09-13T00:25:01;100417.88;;;14.00;81.92
33153;BME280;19509;43.862;26.176;2022-09-13T00:27:26;100420.19;;;14.08;80.79
33153;BME280;19509;43.862;26.176;2022-09-13T00:29:52;100420.34;;;13.78;81.17
33153;BME280;19509;43.862;26.176;2022-09-13T00:32:17;100424.91;;;13.65;81.66
33153;BME280;19509;43.862;26.176;2022-09-13T00:34:43;100419.16;;;13.73;80.99
33153;BME280;19509;43.862;26.176;2022-09-13T00:37:08;100412.44;;;13.64;81.33
33153;BME280;19509;43.862;26.176;2022-09-13T00:39:34;100421.38;;;13.53;81.42
33153;BME280;19509;43.862;26.176;2022-09-13T00:42:00;100413.13;;;13.48;81.94
33153;BME280;19509;43.862;26.176;2022-09-13T00:44:57;100420.22;;;13.49;82.10
33153;BME280;19509;43.862;26.176;2022-09-13T00:52:37;63304.72;;;-144.22;100.00
33153;BME280;19509;43.862;26.176;2022-09-13T00:55:08;63304.72;;;-144.22;100.00
33153;BME280;19509;43.862;26.176;2022-09-13T00:57:35;63304.72;;;-144.22;100.00
33153;BME280;19509;43.862;26.176;2022-09-13T01:00:04;63304.72;;;-144.22;100.00
33153;BME280;19509;43.862;26.176;2022-09-13T01:02:41;63304.72;;;-144.22;100.00
33153;BME280;19509;43.862;26.176;2022-09-13T01:05:10;63304.72;;;-144.22;100.00
33153;BME280;19509;43.862;26.176;2022-09-13T01:07:36;63304.72;;;-144.22;100.00
33153;BME280;19509;43.862;26.176;2022-09-13T01:10:04;63304.72;;;-144.22;100.00
33153;BME280;19509;43.862;26.176;2022-09-13T01:12:47;63304.72;;;-144.22;100.00
33153;BME280;19509;43.862;26.176;2022-09-13T01:15:14;63304.72;;;-144.22;100.00
33153;BME280;19509;43.862;26.176;2022-09-13T01:17:41;63304.72;;;-144.22;100.00
33153;BME280;19509;43.862;26.176;2022-09-13T01:20:07;63304.72;;;-144.22;100.00
33153;BME280;19509;43.862;26.176;2022-09-13T01:31:34;63304.72;;;-144.22;100.00
33153;BME280;19509;43.862;26.176;2022-09-13T01:39:52;63304.72;;;-144.22;100.00
33153;BME280;19509;43.862;26.176;2022-09-13T01:45:01;63304.72;;;-144.22;100.00
33153;BME280;19509;43.862;26.176;2022-09-13T01:47:55;63304.72;;;-144.22;100.00
33153;BME280;19509;43.862;26.176;2022-09-13T01:50:35;63304.72;;;-144.22;100.00
33153;BME280;19509;43.862;26.176;2022-09-13T01:58:57;63304.72;;;-144.22;100.00
33153;BME280;19509;43.862;26.176;2022-09-13T02:01:32;63304.72;;;-144.22;100.00
33153;BME280;19509;43.862;26.176;2022-09-13T02:04:06;63304.72;;;-144.22;100.00
33153;BME280;19509;43.862;26.176;2022-09-13T02:06:39;63304.72;;;-144.22;100.00
33153;BME280;19509;43.862;26.176;2022-09-13T02:09:11;63304.72;;;-144.22;100.00
33153;BME280;19509;43.862;26.176;2022-09-13T02:11:38;63304.72;;;-144.22;100.00
33153;BME280;19509;43.862;26.176;2022-09-13T02:14:29;63304.72;;;-144.22;100.00
33153;BME280;19509;43.862;26.176;2022-09-13T02:17:03;63304.72;;;-144.22;100.00
33153;BME280;19509;43.862;26.176;2022-09-13T02:19:35;63304.72;;;-144.22;100.00
33153;BME280;19509;43.862;26.176;2022-09-13T02:22:05;63304.72;;;-144.22;100.00
33153;BME280;19509;43.862;26.176;2022-09-13T02:24:39;63304.72;;;-144.22;100.00
33153;BME280;19509;43.862;26.176;2022-09-13T02:27:09;63304.72;;;-144.22;100.00
33153;BME280;19509;43.862;26.176;2022-09-13T02:29:38;63304.72;;;-144.22;100.00
33153;BME280;19509;43.862;26.176;2022-09-13T02:32:11;63304.72;;;-144.22;100.00
33153;BME280;19509;43.862;26.176;2022-09-13T02:34:46;63304.72;;;-144.22;100.00
33153;BME280;19509;43.862;26.176;2022-09-13T02:37:13;63304.72;;;-144.22;100.00
33153;BME280;19509;43.862;26.176;2022-09-13T02:39:58;63304.72;;;-144.22;100.00
33153;BME280;19509;43.862;26.176;2022-09-13T02:42:37;63304.72;;;-144.22;100.00
33153;BME280;19509;43.862;26.176;2022-09-13T02:45:07;63304.72;;;-144.22;100.00
33153;BME280;19509;43.862;26.176;2022-09-13T02:47:57;63304.72;;;-144.22;100.00
33153;BME280;19509;43.862;26.176;2022-09-13T03:01:21;63304.72;;;-144.22;100.00
33153;BME280;19509;43.862;26.176;2022-09-13T03:03:46;63304.72;;;-144.22;100.00
33153;BME280;19509;43.862;26.176;2022-09-13T03:06:12;63304.72;;;-144.22;100.00
33153;BME280;19509;43.862;26.176;2022-09-13T03:08:45;63304.72;;;-144.22;100.00
33153;BME280;19509;43.862;26.176;2022-09-13T03:14:18;63304.72;;;-144.22;100.00
33153;BME280;19509;43.862;26.176;2022-09-13T03:25:34;63304.72;;;-144.22;100.00
33153;BME280;19509;43.862;26.176;2022-09-13T03:28:06;63304.72;;;-144.22;100.00
33153;BME280;19509;43.862;26.176;2022-09-13T03:30:41;63304.72;;;-144.22;100.00
33153;BME280;19509;43.862;26.176;2022-09-13T03:36:18;63304.72;;;-144.22;100.00
33153;BME280;19509;43.862;26.176;2022-09-13T03:41:50;63304.72;;;-144.22;100.00
33153;BME280;19509;43.862;26.176;2022-09-13T03:44:20;63304.72;;;-144.22;100.00
33153;BME280;19509;43.862;26.176;2022-09-13T03:46:53;63304.72;;;-144.22;100.00
33153;BME280;19509;43.862;26.176;2022-09-13T03:49:22;63304.72;;;-144.22;100.00
33153;BME280;19509;43.862;26.176;2022-09-13T03:51:50;63304.72;;;-144.22;100.00
33153;BME280;19509;43.862;26.176;2022-09-13T03:54:20;63304.72;;;-144.22;100.00
33153;BME280;19509;43.862;26.176;2022-09-13T03:57:11;63304.72;;;-144.22;100.00
33153;BME280;19509;43.862;26.176;2022-09-13T03:59:38;63304.72;;;-144.22;100.00
33153;BME280;19509;43.862;26.176;2022-09-13T04:02:05;63304.72;;;-144.22;100.00
33153;BME280;19509;43.862;26.176;2022-09-13T04:04:33;63304.72;;;-144.22;100.00
33153;BME280;19509;43.862;26.176;2022-09-13T04:06:59;63304.72;;;-144.22;100.00
33153;BME280;19509;43.862;26.176;2022-09-13T04:09:27;63304.72;;;-144.22;100.00
33153;BME280;19509;43.862;26.176;2022-09-13T04:11:53;63304.72;;;-144.22;100.00
33153;BME280;19509;43.862;26.176;2022-09-13T04:14:19;63304.72;;;-144.22;100.00
33153;BME280;19509;43.862;26.176;2022-09-13T04:16:44;63304.72;;;-144.22;100.00
33153;BME280;19509;43.862;26.176;2022-09-13T04:19:10;63304.72;;;-144.22;100.00
33153;BME280;19509;43.862;26.176;2022-09-13T04:21:35;63304.72;;;-144.22;100.00
33153;BME280;19509;43.862;26.176;2022-09-13T04:24:02;63304.72;;;-144.22;100.00
33153;BME280;19509;43.862;26.176;2022-09-13T04:26:28;63304.72;;;-144.22;100.00
33153;BME280;19509;43.862;26.176;2022-09-13T04:28:53;63304.72;;;-144.22;100.00
33153;BME280;19509;43.862;26.176;2022-09-13T04:31:19;63304.72;;;-144.22;100.00
33153;BME280;19509;43.862;26.176;2022-09-13T04:33:44;63304.72;;;-144.22;100.00
33153;BME280;19509;43.862;26.176;2022-09-13T04:36:10;63304.72;;;-144.22;100.00
33153;BME280;19509;43.862;26.176;2022-09-13T04:38:35;63304.72;;;-144.22;100.00
33153;BME280;19509;43.862;26.176;2022-09-13T04:41:02;63304.72;;;-144.22;100.00
33153;BME280;19509;43.862;26.176;2022-09-13T04:43:27;63304.72;;;-144.22;100.00
33153;BME280;19509;43.862;26.176;2022-09-13T04:45:52;63304.72;;;-144.22;100.00
33153;BME280;19509;43.862;26.176;2022-09-13T04:48:18;63304.72;;;-144.22;100.00
33153;BME280;19509;43.862;26.176;2022-09-13T04:50:43;63304.72;;;-144.22;100.00
33153;BME280;19509;43.862;26.176;2022-09-13T04:53:09;63304.72;;;-144.22;100.00
33153;BME280;19509;43.862;26.176;2022-09-13T04:55:34;63304.72;;;-144.22;100.00
33153;BME280;19509;43.862;26.176;2022-09-13T04:58:01;63304.72;;;-144.22;100.00
33153;BME280;19509;43.862;26.176;2022-09-13T05:00:27;63304.72;;;-144.22;100.00
33153;BME280;19509;43.862;26.176;2022-09-13T05:02:56;63304.72;;;-144.22;100.00
33153;BME280;19509;43.862;26.176;2022-09-13T05:05:22;63304.72;;;-144.22;100.00
33153;BME280;19509;43.862;26.176;2022-09-13T05:07:50;63304.72;;;-144.22;100.00
33153;BME280;19509;43.862;26.176;2022-09-13T05:10:16;63304.72;;;-144.22;100.00
33153;BME280;19509;43.862;26.176;2022-09-13T05:12:41;63304.72;;;-144.22;100.00
33153;BME280;19509;43.862;26.176;2022-09-13T05:15:07;63304.72;;;-144.22;100.00
33153;BME280;19509;43.862;26.176;2022-09-13T05:17:33;63304.72;;;-144.22;100.00
33153;BME280;19509;43.862;26.176;2022-09-13T05:19:58;63304.72;;;-144.22;100.00
33153;BME280;19509;43.862;26.176;2022-09-13T05:22:24;63304.72;;;-144.22;100.00
33153;BME280;19509;43.862;26.176;2022-09-13T05:24:49;63304.72;;;-144.22;100.00
33153;BME280;19509;43.862;26.176;2022-09-13T05:27:15;63304.72;;;-144.22;100.00
33153;BME280;19509;43.862;26.176;2022-09-13T05:29:40;63304.72;;;-144.22;100.00
33153;BME280;19509;43.862;26.176;2022-09-13T05:32:09;63304.72;;;-144.22;100.00
33153;BME280;19509;43.862;26.176;2022-09-13T05:34:35;63304.72;;;-144.22;100.00
33153;BME280;19509;43.862;26.176;2022-09-13T05:37:00;63304.72;;;-144.22;100.00
33153;BME280;19509;43.862;26.176;2022-09-13T05:39:26;63304.72;;;-144.22;100.00
33153;BME280;19509;43.862;26.176;2022-09-13T05:41:51;63304.72;;;-144.22;100.00
33153;BME280;19509;43.862;26.176;2022-09-13T05:44:17;63304.72;;;-144.22;100.00
33153;BME280;19509;43.862;26.176;2022-09-13T05:46:45;63304.72;;;-144.22;100.00
33153;BME280;19509;43.862;26.176;2022-09-13T05:49:11;63304.72;;;-144.22;100.00
33153;BME280;19509;43.862;26.176;2022-09-13T05:51:38;63304.72;;;-144.22;100.00
33153;BME280;19509;43.862;26.176;2022-09-13T05:54:03;63304.72;;;-144.22;100.00
33153;BME280;19509;43.862;26.176;2022-09-13T05:56:29;63304.72;;;-144.22;100.00
33153;BME280;19509;43.862;26.176;2022-09-13T05:58:55;63304.72;;;-144.22;100.00
33153;BME280;19509;43.862;26.176;2022-09-13T06:01:23;63304.72;;;-144.22;100.00
33153;BME280;19509;43.862;26.176;2022-09-13T06:03:51;63304.72;;;-144.22;100.00
33153;BME280;19509;43.862;26.176;2022-09-13T06:06:17;63304.72;;;-144.22;100.00
33153;BME280;19509;43.862;26.176;2022-09-13T06:08:43;63304.72;;;-144.22;100.00
33153;BME280;19509;43.862;26.176;2022-09-13T06:11:10;63304.72;;;-144.22;100.00
33153;BME280;19509;43.862;26.176;2022-09-13T06:13:37;63304.72;;;-144.22;100.00
33153;BME280;19509;43.862;26.176;2022-09-13T06:16:05;63304.72;;;-144.22;100.00
33153;BME280;19509;43.862;26.176;2022-09-13T06:18:31;63304.72;;;-144.22;100.00
33153;BME280;19509;43.862;26.176;2022-09-13T06:21:02;63304.72;;;-144.22;100.00
33153;BME280;19509;43.862;26.176;2022-09-13T06:23:29;63304.72;;;-144.22;100.00
33153;BME280;19509;43.862;26.176;2022-09-13T06:26:15;63304.72;;;-144.22;100.00
33153;BME280;19509;43.862;26.176;2022-09-13T06:28:41;63304.72;;;-144.22;100.00
33153;BME280;19509;43.862;26.176;2022-09-13T06:31:11;63304.72;;;-144.22;100.00
33153;BME280;19509;43.862;26.176;2022-09-13T06:33:40;63304.72;;;-144.22;100.00
33153;BME280;19509;43.862;26.176;2022-09-13T06:36:10;63304.72;;;-144.22;100.00
33153;BME280;19509;43.862;26.176;2022-09-13T06:38:38;63304.72;;;-144.22;100.00
33153;BME280;19509;43.862;26.176;2022-09-13T06:43:29;63304.72;;;-144.22;100.00
33153;BME280;19509;43.862;26.176;2022-09-13T06:46:06;63304.72;;;-144.22;100.00
33153;BME280;19509;43.862;26.176;2022-09-13T06:48:36;63304.72;;;-144.22;100.00
33153;BME280;19509;43.862;26.176;2022-09-13T06:51:05;63304.72;;;-144.22;100.00
33153;BME280;19509;43.862;26.176;2022-09-13T06:53:32;63304.72;;;-144.22;100.00
33153;BME280;19509;43.862;26.176;2022-09-13T06:56:03;63304.72;;;-144.22;100.00
33153;BME280;19509;43.862;26.176;2022-09-13T06:58:29;63304.72;;;-144.22;100.00
33153;BME280;19509;43.862;26.176;2022-09-13T07:01:17;63304.72;;;-144.22;100.00
33153;BME280;19509;43.862;26.176;2022-09-13T07:03:54;63304.72;;;-144.22;100.00
33153;BME280;19509;43.862;26.176;2022-09-13T07:06:24;63304.72;;;-144.22;100.00
33153;BME280;19509;43.862;26.176;2022-09-13T07:08:52;63304.72;;;-144.22;100.00
33153;BME280;19509;43.862;26.176;2022-09-13T07:11:21;63304.72;;;-144.22;100.00
33153;BME280;19509;43.862;26.176;2022-09-13T07:13:51;63304.72;;;-144.22;100.00
33153;BME280;19509;43.862;26.176;2022-09-13T07:16:18;63304.72;;;-144.22;100.00
33153;BME280;19509;43.862;26.176;2022-09-13T07:18:45;63304.72;;;-144.22;100.00
33153;BME280;19509;43.862;26.176;2022-09-13T07:21:14;63304.72;;;-144.22;100.00
33153;BME280;19509;43.862;26.176;2022-09-13T07:23:42;63304.72;;;-144.22;100.00
33153;BME280;19509;43.862;26.176;2022-09-13T07:26:08;63304.72;;;-144.22;100.00
33153;BME280;19509;43.862;26.176;2022-09-13T07:28:39;63304.72;;;-144.22;100.00
33153;BME280;19509;43.862;26.176;2022-09-13T07:33:35;63304.72;;;-144.22;100.00
33153;BME280;19509;43.862;26.176;2022-09-13T07:36:01;63304.72;;;-144.22;100.00
33153;BME280;19509;43.862;26.176;2022-09-13T07:38:34;63304.72;;;-144.22;100.00
33153;BME280;19509;43.862;26.176;2022-09-13T07:41:00;63304.72;;;-144.22;100.00
33153;BME280;19509;43.862;26.176;2022-09-13T07:43:27;63304.72;;;-144.22;100.00
33153;BME280;19509;43.862;26.176;2022-09-13T07:46:16;63304.72;;;-144.22;100.00
33153;BME280;19509;43.862;26.176;2022-09-13T07:48:43;63304.72;;;-144.22;100.00
33153;BME280;19509;43.862;26.176;2022-09-13T07:53:38;63304.72;;;-144.22;100.00
33153;BME280;19509;43.862;26.176;2022-09-13T07:56:10;63304.72;;;-144.22;100.00
33153;BME280;19509;43.862;26.176;2022-09-13T07:58:37;63304.72;;;-144.22;100.00
33153;BME280;19509;43.862;26.176;2022-09-13T08:03:35;63304.72;;;-144.22;100.00
33153;BME280;19509;43.862;26.176;2022-09-13T08:06:01;63304.72;;;-144.22;100.00
33153;BME280;19509;43.862;26.176;2022-09-13T08:08:28;63304.72;;;-144.22;100.00
33153;BME280;19509;43.862;26.176;2022-09-13T08:10:54;63304.72;;;-144.22;100.00
33153;BME280;19509;43.862;26.176;2022-09-13T08:13:20;63304.72;;;-144.22;100.00
33153;BME280;19509;43.862;26.176;2022-09-13T08:15:45;63304.72;;;-144.22;100.00
33153;BME280;19509;43.862;26.176;2022-09-13T08:18:11;63304.72;;;-144.22;100.00
33153;BME280;19509;43.862;26.176;2022-09-13T08:20:38;63304.72;;;-144.22;100.00
33153;BME280;19509;43.862;26.176;2022-09-13T08:23:04;63304.72;;;-144.22;100.00
33153;BME280;19509;43.862;26.176;2022-09-13T08:25:34;63304.72;;;-144.22;100.00
33153;BME280;19509;43.862;26.176;2022-09-13T08:28:04;63304.72;;;-144.22;100.00
33153;BME280;19509;43.862;26.176;2022-09-13T08:30:30;63304.72;;;-144.22;100.00
33153;BME280;19509;43.862;26.176;2022-09-13T08:33:01;63304.72;;;-144.22;100.00
33153;BME280;19509;43.862;26.176;2022-09-13T08:35:27;63304.72;;;-144.22;100.00
33153;BME280;19509;43.862;26.176;2022-09-13T08:37:53;63304.72;;;-144.22;100.00
33153;BME280;19509;43.862;26.176;2022-09-13T08:40:20;63304.72;;;-144.22;100.00
33153;BME280;19509;43.862;26.176;2022-09-13T08:45:57;63304.72;;;-144.22;100.00
33153;BME280;19509;43.862;26.176;2022-09-13T08:48:32;63304.72;;;-144.22;100.00
33153;BME280;19509;43.862;26.176;2022-09-13T08:51:02;63304.72;;;-144.22;100.00
33153;BME280;19509;43.862;26.176;2022-09-13T08:53:29;63304.72;;;-144.22;100.00
33153;BME280;19509;43.862;26.176;2022-09-13T08:59:00;63304.72;;;-144.22;100.00
33153;BME280;19509;43.862;26.176;2022-09-13T09:04:29;63304.72;;;-144.22;100.00
33153;BME280;19509;43.862;26.176;2022-09-13T09:09:32;63304.72;;;-144.22;100.00
33153;BME280;19509;43.862;26.176;2022-09-13T09:13:07;63304.72;;;-144.22;100.00
33153;BME280;19509;43.862;26.176;2022-09-13T09:15:20;63304.72;;;-144.22;100.00
33153;BME280;19509;43.862;26.176;2022-09-13T09:17:53;63304.72;;;-144.22;100.00
33153;BME280;19509;43.862;26.176;2022-09-13T09:20:36;63304.72;;;-144.22;100.00
33153;BME280;19509;43.862;26.176;2022-09-13T09:23:11;63304.72;;;-144.22;100.00
33153;BME280;19509;43.862;26.176;2022-09-13T09:25:38;63304.72;;;-144.22;100.00
33153;BME280;19509;43.862;26.176;2022-09-13T09:28:16;63304.72;;;-144.22;100.00
33153;BME280;19509;43.862;26.176;2022-09-13T09:30:58;63304.72;;;-144.22;100.00
33153;BME280;19509;43.862;26.176;2022-09-13T09:36:24;63304.72;;;-144.22;100.00
33153;BME280;19509;43.862;26.176;2022-09-13T09:38:53;63304.72;;;-144.22;100.00
33153;BME280;19509;43.862;26.176;2022-09-13T09:41:28;63304.72;;;-144.22;100.00
33153;BME280;19509;43.862;26.176;2022-09-13T09:46:54;63304.72;;;-144.22;100.00
33153;BME280;19509;43.862;26.176;2022-09-13T09:49:25;63304.72;;;-144.22;100.00
33153;BME280;19509;43.862;26.176;2022-09-13T09:52:13;63304.72;;;-144.22;100.00
33153;BME280;19509;43.862;26.176;2022-09-13T09:54:40;63304.72;;;-144.22;100.00
33153;BME280;19509;43.862;26.176;2022-09-13T09:57:06;63304.72;;;-144.22;100.00
33153;BME280;19509;43.862;26.176;2022-09-13T09:59:33;63304.72;;;-144.22;100.00
33153;BME280;19509;43.862;26.176;2022-09-13T10:02:00;63304.72;;;-144.22;100.00
33153;BME280;19509;43.862;26.176;2022-09-13T10:04:29;63304.72;;;-144.22;100.00
33153;BME280;19509;43.862;26.176;2022-09-13T10:07:27;63304.72;;;-144.22;100.00
33153;BME280;19509;43.862;26.176;2022-09-13T10:10:00;63304.72;;;-144.22;100.00
33153;BME280;19509;43.862;26.176;2022-09-13T10:12:30;63304.72;;;-144.22;100.00
33153;BME280;19509;43.862;26.176;2022-09-13T10:15:28;63304.72;;;-144.22;100.00
33153;BME280;19509;43.862;26.176;2022-09-13T10:18:15;63304.72;;;-144.22;100.00
33153;BME280;19509;43.862;26.176;2022-09-13T10:20:42;63304.72;;;-144.22;100.00
33153;BME280;19509;43.862;26.176;2022-09-13T10:23:10;63304.72;;;-144.22;100.00
33153;BME280;19509;43.862;26.176;2022-09-13T10:25:43;63304.72;;;-144.22;100.00
33153;BME280;19509;43.862;26.176;2022-09-13T10:28:14;63304.72;;;-144.22;100.00
33153;BME280;19509;43.862;26.176;2022-09-13T10:30:52;63304.72;;;-144.22;100.00
33153;BME280;19509;43.862;26.176;2022-09-13T10:33:42;63304.72;;;-144.22;100.00
33153;BME280;19509;43.862;26.176;2022-09-13T10:36:32;63304.72;;;-144.22;100.00
33153;BME280;19509;43.862;26.176;2022-09-13T10:41:36;63304.72;;;-144.22;100.00
33153;BME280;19509;43.862;26.176;2022-09-13T10:44:08;63304.72;;;-144.22;100.00
33153;BME280;19509;43.862;26.176;2022-09-13T10:46:47;63304.72;;;-144.22;100.00
33153;BME280;19509;43.862;26.176;2022-09-13T10:52:28;63304.72;;;-144.22;100.00
33153;BME280;19509;43.862;26.176;2022-09-13T10:55:19;63304.72;;;-144.22;100.00
33153;BME280;19509;43.862;26.176;2022-09-13T11:09:02;63304.72;;;-144.22;100.00
33153;BME280;19509;43.862;26.176;2022-09-13T11:11:51;63304.72;;;-144.22;100.00
33153;BME280;19509;43.862;26.176;2022-09-13T11:20:46;63304.72;;;-144.22;100.00
33153;BME280;19509;43.862;26.176;2022-09-13T11:23:31;63304.72;;;-144.22;100.00
33153;BME280;19509;43.862;26.176;2022-09-13T11:26:19;63304.72;;;-144.22;100.00
33153;BME280;19509;43.862;26.176;2022-09-13T11:38:02;63304.72;;;-144.22;100.00
33153;BME280;19509;43.862;26.176;2022-09-13T11:40:50;63304.72;;;-144.22;100.00
33153;BME280;19509;43.862;26.176;2022-09-13T11:43:56;63304.72;;;-144.22;100.00
33153;BME280;19509;43.862;26.176;2022-09-13T11:57:14;63304.72;;;-144.22;100.00
33153;BME280;19509;43.862;26.176;2022-09-13T11:59:50;63304.72;;;-144.22;100.00
33153;BME280;19509;43.862;26.176;2022-09-13T12:05:31;63304.72;;;-144.22;100.00
33153;BME280;19509;43.862;26.176;2022-09-13T12:08:15;63304.72;;;-144.22;100.00
33153;BME280;19509;43.862;26.176;2022-09-13T12:11:28;63304.72;;;-144.22;100.00
33153;BME280;19509;43.862;26.176;2022-09-13T12:13:58;63304.72;;;-144.22;100.00
33153;BME280;19509;43.862;26.176;2022-09-13T12:16:35;63304.72;;;-144.22;100.00
33153;BME280;19509;43.862;26.176;2022-09-13T12:19:24;63304.72;;;-144.22;100.00
33153;BME280;19509;43.862;26.176;2022-09-13T12:21:54;63304.72;;;-144.22;100.00
33153;BME280;19509;43.862;26.176;2022-09-13T12:24:51;63304.72;;;-144.22;100.00
33153;BME280;19509;43.862;26.176;2022-09-13T12:30:13;63304.72;;;-144.22;100.00
33153;BME280;19509;43.862;26.176;2022-09-13T12:32:40;63304.72;;;-144.22;100.00
33153;BME280;19509;43.862;26.176;2022-09-13T12:35:30;63304.72;;;-144.22;100.00
33153;BME280;19509;43.862;26.176;2022-09-13T12:52:21;63304.72;;;-144.22;100.00
33153;BME280;19509;43.862;26.176;2022-09-13T12:57:37;63304.72;;;-144.22;100.00
33153;BME280;19509;43.862;26.176;2022-09-13T13:00:23;63304.72;;;-144.22;100.00
33153;BME280;19509;43.862;26.176;2022-09-13T13:03:14;63304.72;;;-144.22;100.00
33153;BME280;19509;43.862;26.176;2022-09-13T13:05:46;63304.72;;;-144.22;100.00
33153;BME280;19509;43.862;26.176;2022-09-13T13:11:07;63304.72;;;-144.22;100.00
33153;BME280;19509;43.862;26.176;2022-09-13T13:13:39;63304.72;;;-144.22;100.00
33153;BME280;19509;43.862;26.176;2022-09-13T13:16:29;63304.72;;;-144.22;100.00
33153;BME280;19509;43.862;26.176;2022-09-13T13:18:59;63304.72;;;-144.22;100.00
33153;BME280;19509;43.862;26.176;2022-09-13T13:21:31;63304.72;;;-144.22;100.00
33153;BME280;19509;43.862;26.176;2022-09-13T13:37:25;63304.72;;;-144.22;100.00
33153;BME280;19509;43.862;26.176;2022-09-13T13:40:18;63304.72;;;-144.22;100.00
33153;BME280;19509;43.862;26.176;2022-09-13T13:42:45;63304.72;;;-144.22;100.00
33153;BME280;19509;43.862;26.176;2022-09-13T13:45:20;63304.72;;;-144.22;100.00
33153;BME280;19509;43.862;26.176;2022-09-13T13:48:13;63304.72;;;-144.22;100.00
33153;BME280;19509;43.862;26.176;2022-09-13T13:51:11;63304.72;;;-144.22;100.00
33153;BME280;19509;43.862;26.176;2022-09-13T13:53:39;63304.72;;;-144.22;100.00
33153;BME280;19509;43.862;26.176;2022-09-13T13:56:23;63304.72;;;-144.22;100.00
33153;BME280;19509;43.862;26.176;2022-09-13T13:58:51;63304.72;;;-144.22;100.00
33153;BME280;19509;43.862;26.176;2022-09-13T14:01:28;63304.72;;;-144.22;100.00
33153;BME280;19509;43.862;26.176;2022-09-13T14:09:41;63304.72;;;-144.22;100.00
33153;BME280;19509;43.862;26.176;2022-09-13T14:12:46;63304.72;;;-144.22;100.00
33153;BME280;19509;43.862;26.176;2022-09-13T14:15:33;63304.72;;;-144.22;100.00
33153;BME280;19509;43.862;26.176;2022-09-13T14:18:23;63304.72;;;-144.22;100.00
33153;BME280;19509;43.862;26.176;2022-09-13T14:21:08;63304.72;;;-144.22;100.00
33153;BME280;19509;43.862;26.176;2022-09-13T14:23:42;63304.72;;;-144.22;100.00
33153;BME280;19509;43.862;26.176;2022-09-13T14:26:09;63304.72;;;-144.22;100.00
33153;BME280;19509;43.862;26.176;2022-09-13T14:28:36;63304.72;;;-144.22;100.00
33153;BME280;19509;43.862;26.176;2022-09-13T14:31:02;63304.72;;;-144.22;100.00
33153;BME280;19509;43.862;26.176;2022-09-13T14:33:31;63304.72;;;-144.22;100.00
33153;BME280;19509;43.862;26.176;2022-09-13T14:36:15;63304.72;;;-144.22;100.00
33153;BME280;19509;43.862;26.176;2022-09-13T14:38:48;63304.72;;;-144.22;100.00
33153;BME280;19509;43.862;26.176;2022-09-13T14:41:17;63304.72;;;-144.22;100.00
33153;BME280;19509;43.862;26.176;2022-09-13T14:43:44;63304.72;;;-144.22;100.00
33153;BME280;19509;43.862;26.176;2022-09-13T14:46:30;63304.72;;;-144.22;100.00
33153;BME280;19509;43.862;26.176;2022-09-13T14:49:24;63304.72;;;-144.22;100.00
33153;BME280;19509;43.862;26.176;2022-09-13T14:52:07;63304.72;;;-144.22;100.00
33153;BME280;19509;43.862;26.176;2022-09-13T14:57:01;63304.72;;;-144.22;100.00
33153;BME280;19509;43.862;26.176;2022-09-13T14:59:35;63304.72;;;-144.22;100.00
33153;BME280;19509;43.862;26.176;2022-09-13T15:02:06;63304.72;;;-144.22;100.00
33153;BME280;19509;43.862;26.176;2022-09-13T15:04:42;63304.72;;;-144.22;100.00
33153;BME280;19509;43.862;26.176;2022-09-13T15:07:31;63304.72;;;-144.22;100.00
33153;BME280;19509;43.862;26.176;2022-09-13T15:15:40;63304.72;;;-144.22;100.00
33153;BME280;19509;43.862;26.176;2022-09-13T15:20:59;63304.72;;;-144.22;100.00
33153;BME280;19509;43.862;26.176;2022-09-13T15:28:29;63304.72;;;-144.22;100.00
33153;BME280;19509;43.862;26.176;2022-09-13T15:30:58;63304.72;;;-144.22;100.00
33153;BME280;19509;43.862;26.176;2022-09-13T15:33:29;63304.72;;;-144.22;100.00
33153;BME280;19509;43.862;26.176;2022-09-13T15:41:36;63304.72;;;-144.22;100.00
33153;BME280;19509;43.862;26.176;2022-09-13T15:44:06;63304.72;;;-144.22;100.00
33153;BME280;19509;43.862;26.176;2022-09-13T15:46:54;63304.72;;;-144.22;100.00
33153;BME280;19509;43.862;26.176;2022-09-13T15:49:24;63304.72;;;-144.22;100.00
33153;BME280;19509;43.862;26.176;2022-09-13T15:51:59;63304.72;;;-144.22;100.00
33153;BME280;19509;43.862;26.176;2022-09-13T15:54:46;63304.72;;;-144.22;100.00
33153;BME280;19509;43.862;26.176;2022-09-13T15:57:22;63304.72;;;-144.22;100.00
33153;BME280;19509;43.862;26.176;2022-09-13T15:59:49;63304.72;;;-144.22;100.00